sensor_id;sensor_type;location;lat;lon;timestamp;P1;durP1;ratioP1;P2;durP2;ratioP2
83284;SDS011;73191;50.074;8.488;2023-12-20T00:00:07;6.25;;;4.10;;
83284;SDS011;73191;50.074;8.488;2023-12-20T00:02:35;6.65;;;4.38;;
83284;SDS011;73191;50.074;8.488;2023-12-20T00:05:03;7.78;;;4.53;;
83284;SDS011;73191;50.074;8.488;2023-12-20T00:07:33;8.35;;;4.10;;
83284;SDS011;73191;50.074;8.488;2023-12-20T00:10:01;8.00;;;4.40;;
83284;SDS011;73191;50.074;8.488;2023-12-20T00:12:29;6.93;;;3.88;;
83284;SDS011;73191;50.074;8.488;2023-12-20T00:14:56;6.55;;;4.03;;
83284;SDS011;73191;50.074;8.488;2023-12-20T00:17:24;6.57;;;3.65;;
83284;SDS011;73191;50.074;8.488;2023-12-20T00:19:52;6.63;;;3.90;;
83284;SDS011;73191;50.074;8.488;2023-12-20T00:22:20;7.93;;;4.25;;
83284;SDS011;73191;50.074;8.488;2023-12-20T00:24:51;6.30;;;3.83;;
83284;SDS011;73191;50.074;8.488;2023-12-20T00:27:18;7.32;;;3.85;;
83284;SDS011;73191;50.074;8.488;2023-12-20T00:29:46;5.90;;;3.70;;
83284;SDS011;73191;50.074;8.488;2023-12-20T00:32:16;6.30;;;3.63;;
83284;SDS011;73191;50.074;8.488;2023-12-20T00:34:44;6.28;;;3.78;;
83284;SDS011;73191;50.074;8.488;2023-12-20T00:37:12;6.53;;;3.58;;
83284;SDS011;73191;50.074;8.488;2023-12-20T00:39:40;5.88;;;3.83;;
83284;SDS011;73191;50.074;8.488;2023-12-20T00:42:09;6.53;;;3.58;;
83284;SDS011;73191;50.074;8.488;2023-12-20T00:44:36;5.80;;;3.50;;
83284;SDS011;73191;50.074;8.488;2023-12-20T00:47:04;4.68;;;3.30;;
83284;SDS011;73191;50.074;8.488;2023-12-20T00:49:32;6.53;;;3.60;;
83284;SDS011;73191;50.074;8.488;2023-12-20T00:52:01;5.05;;;3.40;;
83284;SDS011;73191;50.074;8.488;2023-12-20T00:54:28;8.77;;;3.83;;
83284;SDS011;73191;50.074;8.488;2023-12-20T00:56:57;5.75;;;3.08;;
83284;SDS011;73191;50.074;8.488;2023-12-20T00:59:26;6.45;;;3.47;;
83284;SDS011;73191;50.074;8.488;2023-12-20T01:01:53;7.13;;;3.38;;
83284;SDS011;73191;50.074;8.488;2023-12-20T01:04:22;8.23;;;3.83;;
83284;SDS011;73191;50.074;8.488;2023-12-20T01:06:50;4.72;;;3.30;;
83284;SDS011;73191;50.074;8.488;2023-12-20T01:09:17;5.95;;;3.47;;
83284;SDS011;73191;50.074;8.488;2023-12-20T01:11:45;4.72;;;3.33;;
83284;SDS011;73191;50.074;8.488;2023-12-20T01:14:13;5.63;;;3.50;;
83284;SDS011;73191;50.074;8.488;2023-12-20T01:16:42;4.55;;;3.30;;
83284;SDS011;73191;50.074;8.488;2023-12-20T01:19:10;4.88;;;3.60;;
83284;SDS011;73191;50.074;8.488;2023-12-20T01:21:39;6.50;;;3.67;;
83284;SDS011;73191;50.074;8.488;2023-12-20T01:24:07;6.05;;;3.33;;
83284;SDS011;73191;50.074;8.488;2023-12-20T01:26:35;5.93;;;3.00;;
83284;SDS011;73191;50.074;8.488;2023-12-20T01:29:03;5.22;;;3.53;;
83284;SDS011;73191;50.074;8.488;2023-12-20T01:31:30;6.07;;;3.50;;
83284;SDS011;73191;50.074;8.488;2023-12-20T01:34:00;4.45;;;2.70;;
83284;SDS011;73191;50.074;8.488;2023-12-20T01:36:27;5.40;;;3.22;;
83284;SDS011;73191;50.074;8.488;2023-12-20T01:38:55;5.93;;;3.13;;
83284;SDS011;73191;50.074;8.488;2023-12-20T01:41:23;5.47;;;3.35;;
83284;SDS011;73191;50.074;8.488;2023-12-20T01:43:51;5.05;;;3.40;;
83284;SDS011;73191;50.074;8.488;2023-12-20T01:46:19;6.00;;;3.80;;
83284;SDS011;73191;50.074;8.488;2023-12-20T01:48:47;5.65;;;3.00;;
83284;SDS011;73191;50.074;8.488;2023-12-20T01:51:17;5.47;;;3.00;;
83284;SDS011;73191;50.074;8.488;2023-12-20T01:53:45;6.22;;;3.03;;
83284;SDS011;73191;50.074;8.488;2023-12-20T01:56:14;5.30;;;2.75;;
83284;SDS011;73191;50.074;8.488;2023-12-20T01:58:43;5.88;;;3.22;;
83284;SDS011;73191;50.074;8.488;2023-12-20T02:01:12;3.83;;;2.70;;
83284;SDS011;73191;50.074;8.488;2023-12-20T02:03:40;5.85;;;2.92;;
83284;SDS011;73191;50.074;8.488;2023-12-20T02:06:08;4.57;;;3.13;;
83284;SDS011;73191;50.074;8.488;2023-12-20T02:08:38;4.57;;;3.13;;
83284;SDS011;73191;50.074;8.488;2023-12-20T02:11:05;4.82;;;2.92;;
83284;SDS011;73191;50.074;8.488;2023-12-20T02:13:34;7.38;;;3.17;;
83284;SDS011;73191;50.074;8.488;2023-12-20T02:16:02;3.53;;;2.80;;
83284;SDS011;73191;50.074;8.488;2023-12-20T02:18:30;4.05;;;2.83;;
83284;SDS011;73191;50.074;8.488;2023-12-20T02:20:58;4.53;;;2.55;;
83284;SDS011;73191;50.074;8.488;2023-12-20T02:23:27;5.05;;;2.90;;
83284;SDS011;73191;50.074;8.488;2023-12-20T02:25:54;5.18;;;3.38;;
83284;SDS011;73191;50.074;8.488;2023-12-20T02:28:22;5.43;;;3.30;;
83284;SDS011;73191;50.074;8.488;2023-12-20T02:30:50;4.55;;;2.83;;
83284;SDS011;73191;50.074;8.488;2023-12-20T02:33:18;4.15;;;2.65;;
83284;SDS011;73191;50.074;8.488;2023-12-20T02:35:46;4.85;;;3.40;;
83284;SDS011;73191;50.074;8.488;2023-12-20T02:38:14;4.10;;;2.70;;
83284;SDS011;73191;50.074;8.488;2023-12-20T02:40:43;5.53;;;2.85;;
83284;SDS011;73191;50.074;8.488;2023-12-20T02:45:43;4.38;;;2.60;;
83284;SDS011;73191;50.074;8.488;2023-12-20T02:48:11;4.32;;;2.53;;
83284;SDS011;73191;50.074;8.488;2023-12-20T02:50:39;4.60;;;2.70;;
83284;SDS011;73191;50.074;8.488;2023-12-20T02:53:07;5.05;;;2.60;;
83284;SDS011;73191;50.074;8.488;2023-12-20T02:55:34;3.83;;;2.15;;
83284;SDS011;73191;50.074;8.488;2023-12-20T02:58:03;4.30;;;2.30;;
83284;SDS011;73191;50.074;8.488;2023-12-20T03:00:31;5.00;;;2.10;;
83284;SDS011;73191;50.074;8.488;2023-12-20T03:02:59;5.38;;;2.60;;
83284;SDS011;73191;50.074;8.488;2023-12-20T03:05:27;5.75;;;2.30;;
83284;SDS011;73191;50.074;8.488;2023-12-20T03:07:55;3.03;;;2.13;;
83284;SDS011;73191;50.074;8.488;2023-12-20T03:10:23;3.20;;;2.10;;
83284;SDS011;73191;50.074;8.488;2023-12-20T03:12:53;4.70;;;1.90;;
83284;SDS011;73191;50.074;8.488;2023-12-20T03:15:22;3.58;;;1.73;;
83284;SDS011;73191;50.074;8.488;2023-12-20T03:17:49;2.92;;;1.80;;
83284;SDS011;73191;50.074;8.488;2023-12-20T03:20:19;2.83;;;1.92;;
83284;SDS011;73191;50.074;8.488;2023-12-20T03:22:46;2.60;;;1.63;;
83284;SDS011;73191;50.074;8.488;2023-12-20T03:25:14;2.90;;;1.70;;
83284;SDS011;73191;50.074;8.488;2023-12-20T03:27:42;2.65;;;1.60;;
83284;SDS011;73191;50.074;8.488;2023-12-20T03:30:10;2.72;;;1.67;;
83284;SDS011;73191;50.074;8.488;2023-12-20T03:32:40;2.92;;;1.80;;
83284;SDS011;73191;50.074;8.488;2023-12-20T03:35:07;3.38;;;2.08;;
83284;SDS011;73191;50.074;8.488;2023-12-20T03:37:35;3.03;;;1.75;;
83284;SDS011;73191;50.074;8.488;2023-12-20T03:40:03;2.72;;;1.75;;
83284;SDS011;73191;50.074;8.488;2023-12-20T03:42:32;2.90;;;1.83;;
83284;SDS011;73191;50.074;8.488;2023-12-20T03:44:59;3.63;;;2.10;;
83284;SDS011;73191;50.074;8.488;2023-12-20T03:47:27;2.90;;;2.08;;
83284;SDS011;73191;50.074;8.488;2023-12-20T03:49:56;3.30;;;1.80;;
83284;SDS011;73191;50.074;8.488;2023-12-20T03:52:24;2.95;;;2.10;;
83284;SDS011;73191;50.074;8.488;2023-12-20T03:54:52;2.80;;;1.98;;
83284;SDS011;73191;50.074;8.488;2023-12-20T03:57:20;3.13;;;2.00;;
83284;SDS011;73191;50.074;8.488;2023-12-20T03:59:47;3.25;;;1.70;;
83284;SDS011;73191;50.074;8.488;2023-12-20T04:02:15;4.22;;;2.00;;
83284;SDS011;73191;50.074;8.488;2023-12-20T04:04:44;2.92;;;2.20;;
83284;SDS011;73191;50.074;8.488;2023-12-20T04:07:13;3.38;;;2.20;;
83284;SDS011;73191;50.074;8.488;2023-12-20T04:09:41;3.30;;;1.85;;
83284;SDS011;73191;50.074;8.488;2023-12-20T04:12:09;2.30;;;1.60;;
83284;SDS011;73191;50.074;8.488;2023-12-20T04:14:37;2.75;;;1.75;;
83284;SDS011;73191;50.074;8.488;2023-12-20T04:17:05;2.70;;;1.88;;
83284;SDS011;73191;50.074;8.488;2023-12-20T04:19:32;2.42;;;1.60;;
83284;SDS011;73191;50.074;8.488;2023-12-20T04:22:00;2.33;;;1.60;;
83284;SDS011;73191;50.074;8.488;2023-12-20T04:24:29;2.88;;;1.77;;
83284;SDS011;73191;50.074;8.488;2023-12-20T04:26:58;2.75;;;1.83;;
83284;SDS011;73191;50.074;8.488;2023-12-20T04:29:25;5.10;;;2.17;;
83284;SDS011;73191;50.074;8.488;2023-12-20T04:31:53;3.15;;;1.83;;
83284;SDS011;73191;50.074;8.488;2023-12-20T04:34:24;3.20;;;1.90;;
83284;SDS011;73191;50.074;8.488;2023-12-20T04:36:52;3.60;;;1.77;;
83284;SDS011;73191;50.074;8.488;2023-12-20T04:39:20;2.60;;;1.73;;
83284;SDS011;73191;50.074;8.488;2023-12-20T04:41:49;3.58;;;1.85;;
83284;SDS011;73191;50.074;8.488;2023-12-20T04:44:17;3.72;;;2.45;;
83284;SDS011;73191;50.074;8.488;2023-12-20T04:46:45;3.78;;;2.22;;
83284;SDS011;73191;50.074;8.488;2023-12-20T04:49:12;3.53;;;2.38;;
83284;SDS011;73191;50.074;8.488;2023-12-20T04:51:40;3.70;;;2.33;;
83284;SDS011;73191;50.074;8.488;2023-12-20T04:54:08;5.05;;;2.17;;
83284;SDS011;73191;50.074;8.488;2023-12-20T04:56:36;4.82;;;2.33;;
83284;SDS011;73191;50.074;8.488;2023-12-20T04:59:06;6.97;;;2.88;;
83284;SDS011;73191;50.074;8.488;2023-12-20T05:01:33;3.17;;;2.10;;
83284;SDS011;73191;50.074;8.488;2023-12-20T05:04:01;4.25;;;2.25;;
83284;SDS011;73191;50.074;8.488;2023-12-20T05:06:30;4.10;;;2.33;;
83284;SDS011;73191;50.074;8.488;2023-12-20T05:08:58;3.33;;;2.30;;
83284;SDS011;73191;50.074;8.488;2023-12-20T05:11:25;4.22;;;2.00;;
83284;SDS011;73191;50.074;8.488;2023-12-20T05:13:53;3.97;;;2.10;;
83284;SDS011;73191;50.074;8.488;2023-12-20T05:16:22;3.42;;;2.20;;
83284;SDS011;73191;50.074;8.488;2023-12-20T05:18:50;4.35;;;2.35;;
83284;SDS011;73191;50.074;8.488;2023-12-20T05:21:18;5.00;;;2.72;;
83284;SDS011;73191;50.074;8.488;2023-12-20T05:23:46;4.50;;;2.10;;
83284;SDS011;73191;50.074;8.488;2023-12-20T05:26:14;4.45;;;2.20;;
83284;SDS011;73191;50.074;8.488;2023-12-20T05:28:42;3.45;;;1.90;;
83284;SDS011;73191;50.074;8.488;2023-12-20T05:31:09;6.05;;;2.30;;
83284;SDS011;73191;50.074;8.488;2023-12-20T05:33:38;3.08;;;1.92;;
83284;SDS011;73191;50.074;8.488;2023-12-20T05:36:06;3.28;;;1.90;;
83284;SDS011;73191;50.074;8.488;2023-12-20T05:38:37;6.85;;;2.20;;
83284;SDS011;73191;50.074;8.488;2023-12-20T05:41:05;3.65;;;1.80;;
83284;SDS011;73191;50.074;8.488;2023-12-20T05:43:33;3.60;;;1.58;;
83284;SDS011;73191;50.074;8.488;2023-12-20T05:46:01;2.40;;;1.48;;
83284;SDS011;73191;50.074;8.488;2023-12-20T05:48:28;4.40;;;1.38;;
83284;SDS011;73191;50.074;8.488;2023-12-20T05:50:57;5.53;;;1.50;;
83284;SDS011;73191;50.074;8.488;2023-12-20T05:53:25;6.03;;;1.73;;
83284;SDS011;73191;50.074;8.488;2023-12-20T05:55:53;6.07;;;1.55;;
83284;SDS011;73191;50.074;8.488;2023-12-20T05:58:21;3.17;;;1.50;;
83284;SDS011;73191;50.074;8.488;2023-12-20T06:00:49;4.40;;;1.30;;
83284;SDS011;73191;50.074;8.488;2023-12-20T06:03:17;4.22;;;1.75;;
83284;SDS011;73191;50.074;8.488;2023-12-20T06:05:45;3.40;;;1.67;;
83284;SDS011;73191;50.074;8.488;2023-12-20T06:08:14;3.95;;;1.77;;
83284;SDS011;73191;50.074;8.488;2023-12-20T06:10:42;3.25;;;1.48;;
83284;SDS011;73191;50.074;8.488;2023-12-20T06:13:09;3.15;;;1.80;;
83284;SDS011;73191;50.074;8.488;2023-12-20T06:15:39;7.47;;;1.88;;
83284;SDS011;73191;50.074;8.488;2023-12-20T06:18:07;3.70;;;1.40;;
83284;SDS011;73191;50.074;8.488;2023-12-20T06:20:35;3.50;;;1.60;;
83284;SDS011;73191;50.074;8.488;2023-12-20T06:23:03;3.30;;;1.77;;
83284;SDS011;73191;50.074;8.488;2023-12-20T06:25:32;6.60;;;2.20;;
83284;SDS011;73191;50.074;8.488;2023-12-20T06:28:00;5.60;;;1.80;;
83284;SDS011;73191;50.074;8.488;2023-12-20T06:30:28;5.60;;;1.67;;
83284;SDS011;73191;50.074;8.488;2023-12-20T06:32:56;4.50;;;1.70;;
83284;SDS011;73191;50.074;8.488;2023-12-20T06:35:24;3.65;;;2.13;;
83284;SDS011;73191;50.074;8.488;2023-12-20T06:37:52;7.43;;;1.92;;
83284;SDS011;73191;50.074;8.488;2023-12-20T06:40:19;8.05;;;1.98;;
83284;SDS011;73191;50.074;8.488;2023-12-20T06:42:49;5.53;;;2.15;;
83284;SDS011;73191;50.074;8.488;2023-12-20T06:45:30;5.50;;;2.00;;
83284;SDS011;73191;50.074;8.488;2023-12-20T06:47:58;4.10;;;1.88;;
83284;SDS011;73191;50.074;8.488;2023-12-20T06:50:26;5.38;;;2.22;;
83284;SDS011;73191;50.074;8.488;2023-12-20T06:52:54;6.05;;;1.67;;
83284;SDS011;73191;50.074;8.488;2023-12-20T06:55:21;5.70;;;2.10;;
83284;SDS011;73191;50.074;8.488;2023-12-20T06:57:51;2.65;;;1.70;;
83284;SDS011;73191;50.074;8.488;2023-12-20T07:00:19;4.88;;;2.10;;
83284;SDS011;73191;50.074;8.488;2023-12-20T07:02:47;3.60;;;2.05;;
83284;SDS011;73191;50.074;8.488;2023-12-20T07:05:16;6.25;;;2.35;;
83284;SDS011;73191;50.074;8.488;2023-12-20T07:07:46;4.63;;;2.20;;
83284;SDS011;73191;50.074;8.488;2023-12-20T07:10:14;7.07;;;2.92;;
83284;SDS011;73191;50.074;8.488;2023-12-20T07:12:42;6.18;;;2.42;;
83284;SDS011;73191;50.074;8.488;2023-12-20T07:15:12;5.63;;;2.33;;
83284;SDS011;73191;50.074;8.488;2023-12-20T07:17:39;5.25;;;1.83;;
83284;SDS011;73191;50.074;8.488;2023-12-20T07:20:07;7.03;;;2.50;;
83284;SDS011;73191;50.074;8.488;2023-12-20T07:22:37;3.38;;;1.70;;
83284;SDS011;73191;50.074;8.488;2023-12-20T07:25:06;5.78;;;1.90;;
83284;SDS011;73191;50.074;8.488;2023-12-20T07:27:34;4.53;;;1.70;;
83284;SDS011;73191;50.074;8.488;2023-12-20T07:30:02;7.85;;;2.00;;
83284;SDS011;73191;50.074;8.488;2023-12-20T07:32:32;6.18;;;2.38;;
83284;SDS011;73191;50.074;8.488;2023-12-20T07:34:59;13.57;;;3.20;;
83284;SDS011;73191;50.074;8.488;2023-12-20T07:37:27;11.43;;;2.50;;
83284;SDS011;73191;50.074;8.488;2023-12-20T07:39:55;9.45;;;2.35;;
83284;SDS011;73191;50.074;8.488;2023-12-20T07:42:23;5.63;;;2.55;;
83284;SDS011;73191;50.074;8.488;2023-12-20T07:44:50;4.25;;;2.00;;
83284;SDS011;73191;50.074;8.488;2023-12-20T07:47:18;8.23;;;1.92;;
83284;SDS011;73191;50.074;8.488;2023-12-20T07:49:49;7.90;;;1.90;;
83284;SDS011;73191;50.074;8.488;2023-12-20T07:52:18;3.78;;;1.92;;
83284;SDS011;73191;50.074;8.488;2023-12-20T07:54:46;6.20;;;2.30;;
83284;SDS011;73191;50.074;8.488;2023-12-20T07:57:13;4.25;;;1.90;;
83284;SDS011;73191;50.074;8.488;2023-12-20T07:59:41;3.00;;;1.70;;
83284;SDS011;73191;50.074;8.488;2023-12-20T08:02:10;3.88;;;2.10;;
83284;SDS011;73191;50.074;8.488;2023-12-20T08:04:38;4.38;;;2.25;;
83284;SDS011;73191;50.074;8.488;2023-12-20T08:07:08;4.35;;;1.98;;
83284;SDS011;73191;50.074;8.488;2023-12-20T08:09:36;9.57;;;2.42;;
83284;SDS011;73191;50.074;8.488;2023-12-20T08:12:04;4.22;;;1.85;;
83284;SDS011;73191;50.074;8.488;2023-12-20T08:14:32;4.95;;;1.75;;
83284;SDS011;73191;50.074;8.488;2023-12-20T08:16:59;6.53;;;1.80;;
83284;SDS011;73191;50.074;8.488;2023-12-20T08:19:27;4.72;;;2.20;;
83284;SDS011;73191;50.074;8.488;2023-12-20T08:21:55;9.43;;;2.35;;
83284;SDS011;73191;50.074;8.488;2023-12-20T08:24:24;5.25;;;1.80;;
83284;SDS011;73191;50.074;8.488;2023-12-20T08:26:52;3.75;;;1.80;;
83284;SDS011;73191;50.074;8.488;2023-12-20T08:29:19;5.55;;;2.22;;
83284;SDS011;73191;50.074;8.488;2023-12-20T08:31:51;4.00;;;1.77;;
83284;SDS011;73191;50.074;8.488;2023-12-20T08:34:19;4.15;;;1.83;;
83284;SDS011;73191;50.074;8.488;2023-12-20T08:36:47;7.43;;;2.05;;
83284;SDS011;73191;50.074;8.488;2023-12-20T08:39:15;5.47;;;1.80;;
83284;SDS011;73191;50.074;8.488;2023-12-20T08:41:44;4.60;;;1.60;;
83284;SDS011;73191;50.074;8.488;2023-12-20T08:44:12;6.93;;;2.17;;
83284;SDS011;73191;50.074;8.488;2023-12-20T08:46:40;5.68;;;1.77;;
83284;SDS011;73191;50.074;8.488;2023-12-20T08:49:08;12.45;;;2.08;;
83284;SDS011;73191;50.074;8.488;2023-12-20T08:51:36;8.43;;;1.88;;
83284;SDS011;73191;50.074;8.488;2023-12-20T08:54:06;4.95;;;1.88;;
83284;SDS011;73191;50.074;8.488;2023-12-20T08:56:34;4.55;;;1.70;;
83284;SDS011;73191;50.074;8.488;2023-12-20T08:59:04;5.63;;;1.73;;
83284;SDS011;73191;50.074;8.488;2023-12-20T09:01:32;7.20;;;1.73;;
83284;SDS011;73191;50.074;8.488;2023-12-20T09:03:59;9.55;;;2.25;;
83284;SDS011;73191;50.074;8.488;2023-12-20T09:06:27;7.28;;;2.10;;
83284;SDS011;73191;50.074;8.488;2023-12-20T09:08:55;6.25;;;2.15;;
83284;SDS011;73191;50.074;8.488;2023-12-20T09:11:23;9.25;;;2.83;;
83284;SDS011;73191;50.074;8.488;2023-12-20T09:13:51;7.13;;;2.50;;
83284;SDS011;73191;50.074;8.488;2023-12-20T09:16:20;7.00;;;2.33;;
83284;SDS011;73191;50.074;8.488;2023-12-20T09:18:48;6.70;;;2.40;;
83284;SDS011;73191;50.074;8.488;2023-12-20T09:21:17;6.50;;;2.47;;
83284;SDS011;73191;50.074;8.488;2023-12-20T09:23:44;10.40;;;2.97;;
83284;SDS011;73191;50.074;8.488;2023-12-20T09:26:12;8.13;;;3.25;;
83284;SDS011;73191;50.074;8.488;2023-12-20T09:28:40;5.88;;;3.10;;
83284;SDS011;73191;50.074;8.488;2023-12-20T09:31:08;5.97;;;2.22;;
83284;SDS011;73191;50.074;8.488;2023-12-20T09:33:37;6.97;;;2.40;;
83284;SDS011;73191;50.074;8.488;2023-12-20T09:36:05;4.43;;;2.03;;
83284;SDS011;73191;50.074;8.488;2023-12-20T09:38:33;6.18;;;1.98;;
83284;SDS011;73191;50.074;8.488;2023-12-20T09:41:02;6.57;;;2.00;;
83284;SDS011;73191;50.074;8.488;2023-12-20T09:43:31;10.05;;;2.10;;
83284;SDS011;73191;50.074;8.488;2023-12-20T09:46:05;8.82;;;2.00;;
83284;SDS011;73191;50.074;8.488;2023-12-20T09:48:34;4.93;;;2.30;;
83284;SDS011;73191;50.074;8.488;2023-12-20T09:51:03;8.90;;;2.33;;
83284;SDS011;73191;50.074;8.488;2023-12-20T09:53:31;4.28;;;2.05;;
83284;SDS011;73191;50.074;8.488;2023-12-20T09:56:00;9.70;;;1.98;;
83284;SDS011;73191;50.074;8.488;2023-12-20T09:58:29;6.50;;;2.38;;
83284;SDS011;73191;50.074;8.488;2023-12-20T10:00:57;5.75;;;2.00;;
83284;SDS011;73191;50.074;8.488;2023-12-20T10:03:25;5.18;;;1.92;;
83284;SDS011;73191;50.074;8.488;2023-12-20T10:05:53;6.25;;;2.30;;
83284;SDS011;73191;50.074;8.488;2023-12-20T10:08:23;4.85;;;1.80;;
83284;SDS011;73191;50.074;8.488;2023-12-20T10:10:51;7.65;;;1.90;;
83284;SDS011;73191;50.074;8.488;2023-12-20T10:13:19;7.55;;;2.70;;
83284;SDS011;73191;50.074;8.488;2023-12-20T10:15:47;5.50;;;2.35;;
83284;SDS011;73191;50.074;8.488;2023-12-20T10:18:17;6.25;;;2.28;;
83284;SDS011;73191;50.074;8.488;2023-12-20T10:20:45;6.90;;;2.00;;
83284;SDS011;73191;50.074;8.488;2023-12-20T10:23:13;7.72;;;2.60;;
83284;SDS011;73191;50.074;8.488;2023-12-20T10:25:47;6.65;;;1.95;;
83284;SDS011;73191;50.074;8.488;2023-12-20T10:30:54;5.65;;;1.65;;
83284;SDS011;73191;50.074;8.488;2023-12-20T10:33:23;5.68;;;1.80;;
83284;SDS011;73191;50.074;8.488;2023-12-20T10:35:55;5.22;;;1.60;;
83284;SDS011;73191;50.074;8.488;2023-12-20T10:38:23;6.28;;;2.92;;
83284;SDS011;73191;50.074;8.488;2023-12-20T10:40:53;4.63;;;1.60;;
83284;SDS011;73191;50.074;8.488;2023-12-20T10:43:22;5.38;;;1.75;;
83284;SDS011;73191;50.074;8.488;2023-12-20T10:45:52;8.25;;;1.90;;
83284;SDS011;73191;50.074;8.488;2023-12-20T10:48:20;6.38;;;1.70;;
83284;SDS011;73191;50.074;8.488;2023-12-20T10:50:54;6.03;;;1.70;;
83284;SDS011;73191;50.074;8.488;2023-12-20T10:53:22;7.32;;;1.73;;
83284;SDS011;73191;50.074;8.488;2023-12-20T10:55:54;9.48;;;1.70;;
83284;SDS011;73191;50.074;8.488;2023-12-20T10:58:23;5.00;;;1.48;;
83284;SDS011;73191;50.074;8.488;2023-12-20T11:00:54;8.63;;;1.90;;
83284;SDS011;73191;50.074;8.488;2023-12-20T11:03:26;4.43;;;1.55;;
83284;SDS011;73191;50.074;8.488;2023-12-20T11:05:58;7.55;;;1.50;;
83284;SDS011;73191;50.074;8.488;2023-12-20T11:08:32;7.72;;;2.10;;
83284;SDS011;73191;50.074;8.488;2023-12-20T11:11:06;5.70;;;1.70;;
83284;SDS011;73191;50.074;8.488;2023-12-20T11:13:36;8.55;;;1.88;;
83284;SDS011;73191;50.074;8.488;2023-12-20T11:16:05;4.65;;;1.63;;
83284;SDS011;73191;50.074;8.488;2023-12-20T11:18:34;6.32;;;1.77;;
83284;SDS011;73191;50.074;8.488;2023-12-20T11:21:04;5.47;;;2.03;;
83284;SDS011;73191;50.074;8.488;2023-12-20T11:23:32;3.35;;;1.85;;
83284;SDS011;73191;50.074;8.488;2023-12-20T11:26:01;4.45;;;1.60;;
83284;SDS011;73191;50.074;8.488;2023-12-20T11:28:31;8.23;;;2.28;;
83284;SDS011;73191;50.074;8.488;2023-12-20T11:31:00;6.53;;;1.50;;
83284;SDS011;73191;50.074;8.488;2023-12-20T11:33:30;6.57;;;1.70;;
83284;SDS011;73191;50.074;8.488;2023-12-20T11:35:58;6.30;;;1.60;;
83284;SDS011;73191;50.074;8.488;2023-12-20T11:38:27;4.03;;;1.50;;
83284;SDS011;73191;50.074;8.488;2023-12-20T11:40:54;5.22;;;2.20;;
83284;SDS011;73191;50.074;8.488;2023-12-20T11:43:35;6.47;;;1.95;;
83284;SDS011;73191;50.074;8.488;2023-12-20T11:46:04;5.05;;;1.73;;
83284;SDS011;73191;50.074;8.488;2023-12-20T11:48:34;3.60;;;1.25;;
83284;SDS011;73191;50.074;8.488;2023-12-20T11:51:02;8.02;;;2.15;;
83284;SDS011;73191;50.074;8.488;2023-12-20T11:53:35;5.13;;;1.50;;
83284;SDS011;73191;50.074;8.488;2023-12-20T11:56:03;4.60;;;1.55;;
83284;SDS011;73191;50.074;8.488;2023-12-20T11:58:33;7.78;;;1.67;;
83284;SDS011;73191;50.074;8.488;2023-12-20T12:01:01;6.68;;;1.70;;
83284;SDS011;73191;50.074;8.488;2023-12-20T12:03:31;4.78;;;1.75;;
83284;SDS011;73191;50.074;8.488;2023-12-20T12:05:59;4.90;;;1.60;;
83284;SDS011;73191;50.074;8.488;2023-12-20T12:08:27;5.53;;;1.70;;
83284;SDS011;73191;50.074;8.488;2023-12-20T12:10:55;4.65;;;1.60;;
83284;SDS011;73191;50.074;8.488;2023-12-20T12:13:23;5.40;;;1.50;;
83284;SDS011;73191;50.074;8.488;2023-12-20T12:15:55;7.93;;;1.73;;
83284;SDS011;73191;50.074;8.488;2023-12-20T12:18:41;4.90;;;1.60;;
83284;SDS011;73191;50.074;8.488;2023-12-20T12:21:10;4.78;;;1.75;;
83284;SDS011;73191;50.074;8.488;2023-12-20T12:23:44;4.32;;;1.40;;
83284;SDS011;73191;50.074;8.488;2023-12-20T12:26:12;3.85;;;1.60;;
83284;SDS011;73191;50.074;8.488;2023-12-20T12:28:40;7.43;;;1.88;;
83284;SDS011;73191;50.074;8.488;2023-12-20T12:31:12;5.53;;;2.00;;
83284;SDS011;73191;50.074;8.488;2023-12-20T12:33:41;4.38;;;1.70;;
83284;SDS011;73191;50.074;8.488;2023-12-20T12:36:10;6.68;;;2.00;;
83284;SDS011;73191;50.074;8.488;2023-12-20T12:38:38;7.95;;;2.20;;
83284;SDS011;73191;50.074;8.488;2023-12-20T12:41:06;9.10;;;3.30;;
83284;SDS011;73191;50.074;8.488;2023-12-20T12:43:34;6.47;;;2.10;;
83284;SDS011;73191;50.074;8.488;2023-12-20T12:46:02;4.57;;;1.75;;
83284;SDS011;73191;50.074;8.488;2023-12-20T12:48:32;5.07;;;1.60;;
83284;SDS011;73191;50.074;8.488;2023-12-20T12:51:00;5.60;;;1.98;;
83284;SDS011;73191;50.074;8.488;2023-12-20T12:53:28;7.90;;;1.77;;
83284;SDS011;73191;50.074;8.488;2023-12-20T12:55:56;5.22;;;1.80;;
83284;SDS011;73191;50.074;8.488;2023-12-20T12:58:24;4.95;;;1.70;;
83284;SDS011;73191;50.074;8.488;2023-12-20T13:00:52;4.13;;;1.60;;
83284;SDS011;73191;50.074;8.488;2023-12-20T13:03:21;3.60;;;1.80;;
83284;SDS011;73191;50.074;8.488;2023-12-20T13:05:52;5.55;;;2.08;;
83284;SDS011;73191;50.074;8.488;2023-12-20T13:08:19;5.60;;;1.67;;
83284;SDS011;73191;50.074;8.488;2023-12-20T13:10:47;4.05;;;1.90;;
83284;SDS011;73191;50.074;8.488;2023-12-20T13:13:15;5.22;;;2.10;;
83284;SDS011;73191;50.074;8.488;2023-12-20T13:15:44;6.28;;;1.90;;
83284;SDS011;73191;50.074;8.488;2023-12-20T13:18:17;5.93;;;2.72;;
83284;SDS011;73191;50.074;8.488;2023-12-20T13:20:45;4.40;;;1.95;;
83284;SDS011;73191;50.074;8.488;2023-12-20T13:23:14;6.15;;;1.80;;
83284;SDS011;73191;50.074;8.488;2023-12-20T13:25:44;5.95;;;1.75;;
83284;SDS011;73191;50.074;8.488;2023-12-20T13:28:13;7.47;;;1.77;;
83284;SDS011;73191;50.074;8.488;2023-12-20T13:30:40;4.68;;;1.88;;
83284;SDS011;73191;50.074;8.488;2023-12-20T13:33:09;5.78;;;2.00;;
83284;SDS011;73191;50.074;8.488;2023-12-20T13:35:36;6.25;;;1.80;;
83284;SDS011;73191;50.074;8.488;2023-12-20T13:38:04;8.75;;;1.90;;
83284;SDS011;73191;50.074;8.488;2023-12-20T13:40:34;5.22;;;1.70;;
83284;SDS011;73191;50.074;8.488;2023-12-20T13:43:02;5.05;;;1.85;;
83284;SDS011;73191;50.074;8.488;2023-12-20T13:45:30;5.25;;;1.60;;
83284;SDS011;73191;50.074;8.488;2023-12-20T13:47:58;5.93;;;2.22;;
83284;SDS011;73191;50.074;8.488;2023-12-20T13:50:26;4.93;;;1.85;;
83284;SDS011;73191;50.074;8.488;2023-12-20T13:52:54;8.35;;;1.73;;
83284;SDS011;73191;50.074;8.488;2023-12-20T13:55:21;3.40;;;1.80;;
83284;SDS011;73191;50.074;8.488;2023-12-20T13:57:53;5.22;;;1.60;;
83284;SDS011;73191;50.074;8.488;2023-12-20T14:00:21;5.00;;;1.80;;
83284;SDS011;73191;50.074;8.488;2023-12-20T14:02:49;5.55;;;1.45;;
83284;SDS011;73191;50.074;8.488;2023-12-20T14:05:17;5.47;;;2.00;;
83284;SDS011;73191;50.074;8.488;2023-12-20T14:07:46;8.00;;;1.75;;
83284;SDS011;73191;50.074;8.488;2023-12-20T14:10:15;4.65;;;1.60;;
83284;SDS011;73191;50.074;8.488;2023-12-20T14:12:43;4.55;;;2.00;;
83284;SDS011;73191;50.074;8.488;2023-12-20T14:15:12;5.30;;;1.40;;
83284;SDS011;73191;50.074;8.488;2023-12-20T14:17:41;3.03;;;1.58;;
83284;SDS011;73191;50.074;8.488;2023-12-20T14:20:09;8.32;;;1.63;;
83284;SDS011;73191;50.074;8.488;2023-12-20T14:22:39;4.28;;;1.48;;
83284;SDS011;73191;50.074;8.488;2023-12-20T14:25:10;6.57;;;1.55;;
83284;SDS011;73191;50.074;8.488;2023-12-20T14:27:38;5.53;;;1.75;;
83284;SDS011;73191;50.074;8.488;2023-12-20T14:30:07;5.05;;;1.60;;
83284;SDS011;73191;50.074;8.488;2023-12-20T14:32:37;2.83;;;1.33;;
83284;SDS011;73191;50.074;8.488;2023-12-20T14:35:05;5.60;;;1.40;;
83284;SDS011;73191;50.074;8.488;2023-12-20T14:37:35;6.30;;;1.70;;
83284;SDS011;73191;50.074;8.488;2023-12-20T14:40:05;6.10;;;1.30;;
83284;SDS011;73191;50.074;8.488;2023-12-20T14:42:38;5.32;;;1.08;;
83284;SDS011;73191;50.074;8.488;2023-12-20T14:45:06;4.43;;;1.23;;
83284;SDS011;73191;50.074;8.488;2023-12-20T14:47:34;4.72;;;1.10;;
83284;SDS011;73191;50.074;8.488;2023-12-20T14:50:05;2.88;;;1.00;;
83284;SDS011;73191;50.074;8.488;2023-12-20T14:52:34;5.78;;;1.73;;
83284;SDS011;73191;50.074;8.488;2023-12-20T14:55:03;3.80;;;1.60;;
83284;SDS011;73191;50.074;8.488;2023-12-20T14:57:33;4.15;;;1.20;;
83284;SDS011;73191;50.074;8.488;2023-12-20T15:00:00;3.40;;;1.10;;